createdAt,value
2023-09-17T00:00:52.420Z,159987.09
2023-09-17T00:03:40.602Z,159980.47
2023-09-17T00:06:09.444Z,159985.78
2023-09-17T00:08:38.436Z,159989.81
2023-09-17T00:11:08.406Z,159988.47
2023-09-17T00:13:36.997Z,159995.16
2023-09-17T00:16:05.587Z,159979.09
2023-09-17T00:18:33.296Z,159988.47
2023-09-17T00:21:01.125Z,159989.81
2023-09-17T00:23:28.869Z,159988.47
2023-09-17T00:25:57.081Z,159977.75
2023-09-17T00:28:24.726Z,159988.47
2023-09-17T00:30:53.179Z,160003.19
2023-09-17T00:33:21.696Z,159996.50
2023-09-17T00:35:50.210Z,159980.47
2023-09-17T00:38:17.859Z,159980.47
2023-09-17T00:40:45.664Z,159983.13
2023-09-17T00:43:15.065Z,159960.41
2023-09-17T00:45:44.632Z,159944.31
2023-09-17T00:48:13.467Z,159941.66
2023-09-17T00:50:42.181Z,159941.66
2023-09-17T00:53:10.752Z,159951.00
2023-09-17T00:55:39.331Z,159956.38
2023-09-17T00:58:07.683Z,159953.72
2023-09-17T01:00:39.850Z,159945.72
2023-09-17T01:03:08.733Z,159933.66
2023-09-17T01:05:44.892Z,159932.34
2023-09-17T01:08:13.490Z,159928.31
2023-09-17T01:10:42.254Z,159920.28
2023-09-17T01:13:10.550Z,159902.94
2023-09-17T01:15:39.407Z,159897.56
2023-09-17T01:18:11.045Z,159882.88
2023-09-17T01:20:49.329Z,159876.19
2023-09-17T01:23:31.676Z,159888.19
2023-09-17T01:26:15.018Z,159881.56
2023-09-17T01:28:43.021Z,159864.16
2023-09-17T01:31:13.617Z,159833.44
2023-09-17T01:33:41.752Z,159842.78
2023-09-17T01:36:35.314Z,159826.75
2023-09-17T01:39:11.864Z,159802.66
2023-09-17T01:41:41.410Z,159786.66
2023-09-17T01:44:09.775Z,159787.97
2023-09-17T01:46:40.479Z,159785.31
2023-09-17T01:49:11.395Z,159784.00
2023-09-17T01:51:44.496Z,159781.28
2023-09-17T01:54:12.228Z,159774.59
2023-09-17T01:56:40.548Z,159761.25
2023-09-17T01:59:08.161Z,159750.59
2023-09-17T02:01:37.159Z,159746.56
2023-09-17T02:04:05.390Z,159725.19
2023-09-17T02:06:33.664Z,159734.56
2023-09-17T02:09:01.393Z,159738.53
2023-09-17T02:11:29.427Z,159738.53
2023-09-17T02:13:57.291Z,159722.53
2023-09-17T02:16:26.529Z,159721.19
2023-09-17T02:18:54.259Z,159715.84
2023-09-17T02:21:22.477Z,159703.81
2023-09-17T02:23:50.719Z,159695.78
2023-09-17T02:26:19.053Z,159686.47
2023-09-17T02:28:46.710Z,159683.72
2023-09-17T02:31:15.281Z,159678.41
2023-09-17T02:33:43.069Z,159655.66
2023-09-17T02:36:12.720Z,159640.97
2023-09-17T02:38:42.839Z,159627.66
2023-09-17T02:41:10.787Z,159626.28
2023-09-17T02:43:39.302Z,159624.94
2023-09-17T02:46:07.927Z,159612.91
2023-09-17T02:48:36.449Z,159587.56
2023-09-17T02:51:04.524Z,159576.88
2023-09-17T02:53:32.104Z,159567.53
2023-09-17T02:55:59.818Z,159554.19
2023-09-17T02:58:27.375Z,159542.16
2023-09-17T03:00:55.183Z,159539.50
2023-09-17T03:03:24.155Z,159548.81
2023-09-17T03:05:53.007Z,159544.84
2023-09-17T03:08:20.599Z,159542.16
2023-09-17T03:10:59.134Z,159534.13
2023-09-17T03:13:27.146Z,159530.16
2023-09-17T03:15:59.483Z,159514.09
2023-09-17T03:18:28.116Z,159515.47
2023-09-17T03:20:56.663Z,159510.13
2023-09-17T03:23:24.855Z,159504.78
2023-09-17T03:25:52.952Z,159494.13
2023-09-17T03:28:20.953Z,159487.44
2023-09-17T03:30:49.075Z,159470.06
2023-09-17T03:33:17.104Z,159452.72
2023-09-17T03:35:47.953Z,159460.72
2023-09-17T03:38:15.863Z,159450.03
2023-09-17T03:40:44.415Z,159436.66
2023-09-17T03:43:12.363Z,159438.03
2023-09-17T03:45:42.501Z,159432.69
2023-09-17T03:48:09.940Z,159427.34
2023-09-17T03:50:40.956Z,159422.00
2023-09-17T03:53:09.610Z,159405.97
2023-09-17T03:55:39.327Z,159392.63
2023-09-17T03:58:10.118Z,159376.63
2023-09-17T04:00:43.446Z,159392.63
2023-09-17T04:03:12.472Z,159400.63
2023-09-17T04:05:40.819Z,159403.34
2023-09-17T04:08:10.150Z,159415.31
2023-09-17T04:10:38.064Z,159439.38
2023-09-17T04:13:06.012Z,159440.69
2023-09-17T04:15:34.286Z,159446.03
2023-09-17T04:18:01.887Z,159450.03
2023-09-17T04:20:29.650Z,159458.03
2023-09-17T04:22:57.787Z,159478.06
2023-09-17T04:25:27.610Z,159498.09
2023-09-17T04:27:56.351Z,159499.41
2023-09-17T04:30:25.754Z,159535.47
2023-09-17T04:32:56.745Z,159567.53
2023-09-17T04:35:25.341Z,159604.91
2023-09-17T04:37:53.391Z,159635.66
2023-09-17T04:40:40.919Z,159667.69
2023-09-17T04:43:11.276Z,159709.16
2023-09-17T04:45:40.330Z,159770.63
2023-09-17T04:48:13.752Z,159820.06
2023-09-17T04:50:47.888Z,159876.19
2023-09-17T04:53:16.741Z,159935.00
2023-09-17T04:55:47.045Z,159967.09
2023-09-17T04:58:15.930Z,160013.84
2023-09-17T05:00:48.804Z,160041.91
2023-09-17T05:03:17.163Z,160095.47
2023-09-17T05:05:47.899Z,160171.72
2023-09-17T05:08:18.422Z,160251.94
2023-09-17T05:10:47.330Z,160284.09
2023-09-17T05:13:15.541Z,160312.19
2023-09-17T05:15:43.463Z,160388.44
2023-09-17T05:18:12.383Z,160421.91
2023-09-17T05:20:49.410Z,160471.44
2023-09-17T05:23:19.137Z,160474.09
2023-09-17T05:25:50.405Z,160499.53
2023-09-17T05:28:18.295Z,160574.53
2023-09-17T05:30:46.636Z,160625.41
2023-09-17T05:33:14.386Z,160678.94
2023-09-17T05:35:43.590Z,160740.59
2023-09-17T05:38:11.529Z,160796.84
2023-09-17T05:40:39.688Z,160873.22
2023-09-17T05:43:09.280Z,160912.03
2023-09-17T05:45:37.934Z,161004.56
2023-09-17T05:48:06.607Z,161095.69
2023-09-17T05:50:35.454Z,161166.75
2023-09-17T05:53:03.150Z,161161.41
2023-09-17T05:55:32.407Z,161193.56
2023-09-17T05:58:00.259Z,161211.03
2023-09-17T06:00:28.867Z,161211.03
2023-09-17T06:02:57.011Z,161240.56
2023-09-17T06:05:25.499Z,161245.94
2023-09-17T06:07:53.789Z,161266.00
2023-09-17T06:10:23.387Z,161267.41
2023-09-17T06:12:52.159Z,161274.09
2023-09-17T06:15:20.645Z,161263.34
2023-09-17T06:17:48.204Z,161286.13
2023-09-17T06:20:17.673Z,161307.59
2023-09-17T06:22:46.979Z,161271.38
2023-09-17T06:25:17.212Z,161268.72
2023-09-17T06:27:45.438Z,161295.56
2023-09-17T06:30:15.118Z,161346.50
2023-09-17T06:32:43.465Z,161365.25
2023-09-17T06:35:12.243Z,161457.81
2023-09-17T06:37:41.342Z,161463.19
2023-09-17T06:40:12.183Z,161487.41
2023-09-17T06:42:40.914Z,161530.34
2023-09-17T06:45:10.816Z,161558.53
2023-09-17T06:47:38.631Z,161601.47
2023-09-17T06:50:09.119Z,161641.69
2023-09-17T06:52:36.905Z,161695.41
2023-09-17T06:55:06.253Z,161677.97
2023-09-17T06:57:34.003Z,161647.06
2023-09-17T07:00:02.200Z,161656.50
2023-09-17T07:02:30.148Z,161660.50
2023-09-17T07:05:01.794Z,161641.69
2023-09-17T07:07:30.048Z,161613.50
2023-09-17T07:09:58.303Z,161580.00
2023-09-17T07:12:26.423Z,161573.28
2023-09-17T07:14:54.940Z,161554.47
2023-09-17T07:17:22.763Z,161584.00
2023-09-17T07:19:51.130Z,161612.19
2023-09-17T07:22:18.983Z,161668.56
2023-09-17T07:24:46.989Z,161698.06
2023-09-17T07:27:15.798Z,161716.88
2023-09-17T07:29:45.142Z,161757.22
2023-09-17T07:32:13.610Z,161770.66
2023-09-17T07:34:42.094Z,161806.88
2023-09-17T07:37:10.820Z,161836.41
2023-09-17T07:39:40.257Z,161921.03
2023-09-17T07:42:09.837Z,161985.53
2023-09-17T07:44:37.699Z,161941.16
2023-09-17T07:47:07.567Z,161994.91
2023-09-17T07:49:37.880Z,162064.78
2023-09-17T07:52:06.600Z,162076.88
2023-09-17T07:54:40.879Z,162082.25
2023-09-17T07:57:10.015Z,162102.38
2023-09-17T07:59:38.180Z,162114.47
2023-09-17T08:02:06.777Z,162076.88
2023-09-17T08:04:35.458Z,162091.66
2023-09-17T08:07:04.119Z,162121.19
2023-09-17T08:09:32.366Z,162195.13
2023-09-17T08:12:00.797Z,162248.91
2023-09-17T08:14:29.930Z,162244.91
2023-09-17T08:16:57.522Z,162308.03
2023-09-17T08:19:26.082Z,162330.91
2023-09-17T08:21:53.897Z,162411.59
2023-09-17T08:24:22.652Z,162455.97
2023-09-17T08:26:50.732Z,162394.16
2023-09-17T08:29:18.710Z,162334.91
2023-09-17T08:31:48.137Z,162357.75
2023-09-17T08:34:16.868Z,162429.06
2023-09-17T08:36:46.538Z,162497.66
2023-09-17T08:39:15.084Z,162493.63
2023-09-17T08:41:44.606Z,162555.47
2023-09-17T08:44:14.240Z,162659.09
2023-09-17T08:46:42.594Z,162649.69
2023-09-17T08:49:11.924Z,162695.41
2023-09-17T08:51:43.048Z,162644.28
2023-09-17T08:54:27.450Z,162570.25
2023-09-17T08:56:57.748Z,162621.44
2023-09-17T08:59:30.674Z,162655.03
2023-09-17T09:02:03.209Z,162660.41
2023-09-17T09:04:31.944Z,162677.94
2023-09-17T09:07:00.944Z,162692.72
2023-09-17T09:09:29.800Z,162653.69
2023-09-17T09:11:58.680Z,162652.34
2023-09-17T09:14:27.280Z,162603.94
2023-09-17T09:16:55.843Z,162620.06
2023-09-17T09:19:24.384Z,162648.31
2023-09-17T09:21:52.879Z,162664.47
2023-09-17T09:24:25.044Z,162660.41
2023-09-17T09:26:53.426Z,162702.13
2023-09-17T09:29:21.721Z,162703.47
2023-09-17T09:31:50.338Z,162686.00
2023-09-17T09:34:19.500Z,162618.72
2023-09-17T09:36:47.545Z,162624.13
2023-09-17T09:39:17.235Z,162652.34
2023-09-17T09:41:45.760Z,162628.16
2023-09-17T09:44:14.447Z,162692.72
2023-09-17T09:46:42.565Z,162731.72
2023-09-17T09:49:11.081Z,162688.69
2023-09-17T09:51:38.808Z,162706.13
2023-09-17T09:54:06.884Z,162715.59
2023-09-17T09:56:35.354Z,162761.31
2023-09-17T09:59:04.536Z,162815.19
2023-09-17T10:01:32.835Z,162823.25
2023-09-17T10:04:01.763Z,162840.72
2023-09-17T10:06:31.697Z,162867.66
2023-09-17T10:09:01.038Z,162874.38
2023-09-17T10:11:29.577Z,162873.03
2023-09-17T10:14:05.610Z,162908.03
2023-09-17T10:16:38.352Z,162917.44
2023-09-17T10:19:08.528Z,162963.22
2023-09-17T10:21:38.899Z,162967.25
2023-09-17T10:24:08.388Z,163002.28
2023-09-17T10:26:42.596Z,162988.81
2023-09-17T10:29:12.475Z,162945.72
2023-09-17T10:31:42.185Z,162940.31
2023-09-17T10:34:12.519Z,162944.38
2023-09-17T10:36:41.275Z,162971.31
2023-09-17T10:39:11.802Z,163019.81
2023-09-17T10:41:40.341Z,163058.81
2023-09-17T10:44:09.462Z,163096.50
2023-09-17T10:46:39.877Z,163127.50
2023-09-17T10:49:09.230Z,163155.78
2023-09-17T10:51:37.126Z,163158.47
2023-09-17T10:54:05.442Z,163166.53
2023-09-17T10:56:34.382Z,163177.38
2023-09-17T10:59:05.628Z,163178.72
2023-09-17T11:01:36.107Z,163182.78
2023-09-17T11:04:11.666Z,163189.50
2023-09-17T11:06:40.130Z,163208.31
2023-09-17T11:09:08.260Z,163192.19
2023-09-17T11:11:38.728Z,163150.38
2023-09-17T11:14:17.276Z,163115.38
2023-09-17T11:16:49.688Z,163115.38
2023-09-17T11:19:18.341Z,163128.84
2023-09-17T11:21:51.498Z,163150.38
2023-09-17T11:24:22.276Z,163171.97
2023-09-17T11:26:49.983Z,163140.97
2023-09-17T11:29:18.458Z,163169.25
2023-09-17T11:31:52.284Z,163108.63
2023-09-17T11:34:22.202Z,163116.72
2023-09-17T11:36:51.223Z,163143.66
2023-09-17T11:39:22.903Z,163146.31
2023-09-17T11:41:56.599Z,163158.47
2023-09-17T11:44:25.125Z,163193.50
2023-09-17T11:46:53.058Z,163212.38
2023-09-17T11:49:23.577Z,163231.22
2023-09-17T11:51:51.769Z,163221.78
2023-09-17T11:54:25.271Z,163225.88
2023-09-17T11:56:55.250Z,163209.66
2023-09-17T11:59:25.042Z,163229.88
2023-09-17T12:01:57.046Z,163240.66
2023-09-17T12:04:33.080Z,163244.69
2023-09-17T12:07:02.791Z,163258.16
2023-09-17T12:09:31.634Z,163279.69
2023-09-17T12:12:00.323Z,163260.88
2023-09-17T12:14:28.686Z,163272.97
2023-09-17T12:16:57.317Z,163307.97
2023-09-17T12:19:25.606Z,163343.00
2023-09-17T12:21:56.298Z,163371.34
2023-09-17T12:24:37.218Z,163368.66
2023-09-17T12:27:09.688Z,163329.53
2023-09-17T12:29:39.836Z,163316.06
2023-09-17T12:32:09.940Z,163357.88
2023-09-17T12:34:39.060Z,163368.66
2023-09-17T12:37:07.880Z,163352.47
2023-09-17T12:39:35.891Z,163345.69
2023-09-17T12:42:04.964Z,163380.75
2023-09-17T12:44:33.704Z,163376.75
2023-09-17T12:47:04.780Z,163383.47
2023-09-17T12:49:33.076Z,163357.88
2023-09-17T12:52:02.534Z,163365.94
2023-09-17T12:54:30.646Z,163382.16
2023-09-17T12:56:59.728Z,163400.97
2023-09-17T12:59:33.157Z,163411.78
2023-09-17T13:02:07.106Z,163438.72
2023-09-17T13:04:47.491Z,163460.28
2023-09-17T13:07:19.948Z,163476.44
2023-09-17T13:09:50.676Z,163498.00
2023-09-17T13:12:20.855Z,163504.72
2023-09-17T13:14:53.605Z,163484.50
2023-09-17T13:17:23.268Z,163465.63
2023-09-17T13:19:51.774Z,163450.81
2023-09-17T13:22:20.554Z,163418.50
2023-09-17T13:24:48.967Z,163426.59
2023-09-17T13:27:19.155Z,163456.22
2023-09-17T13:29:55.228Z,163475.09
2023-09-17T13:32:24.205Z,163473.72
2023-09-17T13:34:52.346Z,163485.84
2023-09-17T13:37:20.765Z,163477.78
2023-09-17T13:39:54.169Z,163492.59
2023-09-17T13:42:22.989Z,163495.31
2023-09-17T13:44:51.592Z,163481.84
2023-09-17T13:47:19.400Z,163498.00
2023-09-17T13:49:47.844Z,163480.44
2023-09-17T13:52:16.326Z,163514.16
2023-09-17T13:54:45.194Z,163534.41
2023-09-17T13:57:13.772Z,163557.31
2023-09-17T13:59:41.752Z,163558.66
2023-09-17T14:02:10.065Z,163554.63
2023-09-17T14:04:38.164Z,163535.75
2023-09-17T14:07:06.657Z,163537.09
2023-09-17T14:09:34.668Z,163523.56
2023-09-17T14:12:02.944Z,163488.56
2023-09-17T14:14:31.357Z,163421.19
2023-09-17T14:16:59.624Z,163392.91
2023-09-17T14:19:27.716Z,163390.22
2023-09-17T14:21:56.271Z,163376.75
2023-09-17T14:24:24.209Z,163356.53
2023-09-17T14:26:52.419Z,163336.28
2023-09-17T14:29:20.151Z,163295.84
2023-09-17T14:31:48.800Z,163263.56
2023-09-17T14:34:16.670Z,163223.13
2023-09-17T14:36:44.964Z,163223.13
2023-09-17T14:39:13.087Z,163213.72
2023-09-17T14:41:41.409Z,163212.38
2023-09-17T14:44:09.926Z,163189.50
2023-09-17T14:46:39.974Z,163182.78
2023-09-17T14:49:08.634Z,163180.06
2023-09-17T14:51:36.783Z,163166.53
2023-09-17T14:54:05.409Z,163139.59
2023-09-17T14:56:36.167Z,163123.44
2023-09-17T14:59:04.744Z,163093.84
2023-09-17T15:01:58.655Z,163076.34
2023-09-17T15:04:21.698Z,163060.16
2023-09-17T15:06:50.147Z,163042.69
2023-09-17T15:09:19.149Z,163030.56
2023-09-17T15:11:48.414Z,163010.34
2023-09-17T15:14:17.133Z,163003.63
2023-09-17T15:16:45.727Z,163010.34
2023-09-17T15:19:13.803Z,163010.34
2023-09-17T15:21:42.510Z,162996.91
2023-09-17T15:24:10.287Z,162983.47
2023-09-17T15:26:38.866Z,162980.72
2023-09-17T15:29:12.258Z,162959.16
2023-09-17T15:31:41.356Z,162959.16
2023-09-17T15:34:10.307Z,162925.50
2023-09-17T15:36:42.169Z,162882.44
2023-09-17T15:39:10.695Z,162836.72
2023-09-17T15:41:39.186Z,162817.88
2023-09-17T15:44:08.177Z,162797.69
2023-09-17T15:46:37.557Z,162757.28
2023-09-17T15:49:06.288Z,162742.50
2023-09-17T15:51:34.835Z,162725.00
2023-09-17T15:54:02.938Z,162706.13
2023-09-17T15:56:31.929Z,162676.56
2023-09-17T15:58:59.892Z,162653.69
2023-09-17T16:01:28.048Z,162610.66
2023-09-17T16:03:56.010Z,162571.63
2023-09-17T16:06:24.994Z,162511.09
2023-09-17T16:08:54.453Z,162497.66
2023-09-17T16:11:23.263Z,162480.19
2023-09-17T16:13:51.588Z,162447.91
2023-09-17T16:16:19.837Z,162418.31
2023-09-17T16:18:48.684Z,162392.75
2023-09-17T16:21:16.783Z,162377.94
2023-09-17T16:23:45.466Z,162359.13
2023-09-17T16:26:13.655Z,162340.31
2023-09-17T16:28:42.206Z,162324.19
2023-09-17T16:31:10.108Z,162308.03
2023-09-17T16:33:38.275Z,162279.78
2023-09-17T16:36:06.416Z,162236.78
2023-09-17T16:38:35.243Z,162205.91
2023-09-17T16:41:04.085Z,162192.47
2023-09-17T16:43:32.474Z,162173.59
2023-09-17T16:46:00.365Z,162164.19
2023-09-17T16:48:28.715Z,162152.09
2023-09-17T16:50:56.654Z,162133.31
2023-09-17T16:53:30.126Z,162121.19
2023-09-17T16:55:58.111Z,162105.09
2023-09-17T16:58:26.594Z,162076.88
2023-09-17T17:00:54.585Z,162066.09
2023-09-17T17:03:24.943Z,162060.78
2023-09-17T17:05:55.392Z,162040.63
2023-09-17T17:08:23.947Z,162023.13
2023-09-17T17:10:51.899Z,162015.06
2023-09-17T17:13:20.370Z,162002.97
2023-09-17T17:15:48.762Z,161993.59
2023-09-17T17:18:17.006Z,161980.16
2023-09-17T17:20:44.893Z,161949.22
2023-09-17T17:23:15.004Z,161943.84
2023-09-17T17:25:45.300Z,161925.03
2023-09-17T17:28:13.783Z,161899.53
2023-09-17T17:30:41.697Z,161871.34
2023-09-17T17:33:10.660Z,161845.81
2023-09-17T17:35:38.638Z,161833.75
2023-09-17T17:38:06.858Z,161805.56
2023-09-17T17:40:37.064Z,161789.41
2023-09-17T17:43:05.419Z,161763.94
2023-09-17T17:45:36.188Z,161757.22
2023-09-17T17:48:07.645Z,161757.22
2023-09-17T17:50:35.742Z,161761.22
2023-09-17T17:53:05.436Z,161765.25
2023-09-17T17:55:33.773Z,161761.22
2023-09-17T17:58:02.731Z,161770.66
2023-09-17T18:00:31.158Z,161769.25
2023-09-17T18:03:01.505Z,161765.25
2023-09-17T18:05:31.204Z,161774.66
2023-09-17T18:07:59.325Z,161771.97
2023-09-17T18:10:27.430Z,161770.66
2023-09-17T18:12:56.271Z,161773.31
2023-09-17T18:15:24.635Z,161782.69
2023-09-17T18:17:54.879Z,161817.59
2023-09-17T18:20:23.208Z,161823.00
2023-09-17T18:22:51.706Z,161836.41
2023-09-17T18:25:20.125Z,161823.00
2023-09-17T18:27:48.670Z,161836.41
2023-09-17T18:30:16.641Z,161825.66
2023-09-17T18:32:45.044Z,161835.09
2023-09-17T18:35:13.400Z,161844.47
2023-09-17T18:37:42.470Z,161855.22
2023-09-17T18:40:11.105Z,161860.56
2023-09-17T18:42:39.392Z,161880.72
2023-09-17T18:45:11.044Z,161907.59
2023-09-17T18:47:40.144Z,161930.41
2023-09-17T18:50:08.745Z,161939.84
2023-09-17T18:52:37.540Z,161955.94
2023-09-17T18:55:06.447Z,161968.03
2023-09-17T18:57:41.242Z,161988.19
2023-09-17T19:00:11.837Z,162008.34
2023-09-17T19:02:44.655Z,162015.06
2023-09-17T19:05:14.283Z,162001.63
2023-09-17T19:07:42.694Z,162040.63
2023-09-17T19:10:18.284Z,162062.09
2023-09-17T19:12:46.996Z,162051.34
2023-09-17T19:15:14.967Z,162052.66
2023-09-17T19:17:43.202Z,162062.09
2023-09-17T19:20:12.444Z,162067.50
2023-09-17T19:22:40.624Z,162078.22
2023-09-17T19:25:09.333Z,162068.81
2023-09-17T19:27:37.729Z,162084.94
2023-09-17T19:30:06.320Z,162082.25
2023-09-17T19:32:35.390Z,162084.94
2023-09-17T19:35:03.795Z,162080.88
2023-09-17T19:37:32.371Z,162082.25
2023-09-17T19:40:00.536Z,162074.16
2023-09-17T19:42:29.366Z,162071.50
2023-09-17T19:44:57.373Z,162074.16
2023-09-17T19:47:26.338Z,162080.88
2023-09-17T19:49:54.602Z,162075.53
2023-09-17T19:52:22.707Z,162068.81
2023-09-17T19:54:51.246Z,162066.09
2023-09-17T19:57:20.169Z,162045.94
2023-09-17T19:59:48.263Z,162039.28
2023-09-17T20:02:17.256Z,162023.13
2023-09-17T20:04:45.415Z,162021.78
2023-09-17T20:07:13.980Z,162015.06
2023-09-17T20:09:42.031Z,162012.41
2023-09-17T20:12:10.627Z,162011.06
2023-09-17T20:14:39.184Z,162002.97
2023-09-17T20:17:07.499Z,162007.03
2023-09-17T20:19:37.821Z,161990.91
2023-09-17T20:22:06.228Z,161976.16
2023-09-17T20:24:34.538Z,161962.72
2023-09-17T20:27:03.053Z,161943.84
2023-09-17T20:29:30.860Z,161938.44
2023-09-17T20:31:59.139Z,161911.63
2023-09-17T20:34:27.093Z,161891.47
2023-09-17T20:36:55.536Z,161880.72
2023-09-17T20:41:51.960Z,161860.56
2023-09-17T20:44:20.429Z,161857.91
2023-09-17T20:46:49.129Z,161836.41
2023-09-17T20:49:16.697Z,161836.41
2023-09-17T20:51:45.383Z,161806.88
2023-09-17T20:54:13.236Z,161800.16
2023-09-17T20:56:43.779Z,161784.06
2023-09-17T20:59:12.555Z,161762.53
2023-09-17T21:01:41.776Z,161739.75
2023-09-17T21:04:10.214Z,161720.94
2023-09-17T21:06:38.572Z,161690.03
2023-09-17T21:09:06.617Z,161667.22
2023-09-17T21:11:35.229Z,161632.31
2023-09-17T21:14:02.919Z,161639.03
2023-09-17T21:16:31.384Z,161606.84
2023-09-17T21:18:59.354Z,161597.41
2023-09-17T21:21:27.308Z,161597.41
2023-09-17T21:23:57.298Z,161578.66
2023-09-17T21:26:26.196Z,161570.56
2023-09-17T21:28:54.603Z,161550.47
2023-09-17T21:31:27.523Z,161542.38
2023-09-17T21:33:55.309Z,161522.31
2023-09-17T21:36:23.884Z,161510.22
2023-09-17T21:38:55.291Z,161491.41
2023-09-17T21:41:23.928Z,161472.63
2023-09-17T21:43:52.380Z,161460.53
2023-09-17T21:46:21.085Z,161451.16
2023-09-17T21:48:48.903Z,161441.72
2023-09-17T21:51:17.299Z,161413.56
2023-09-17T21:53:45.813Z,161377.34
2023-09-17T21:56:14.051Z,161322.34
2023-09-17T21:58:41.582Z,161251.28
2023-09-17T22:01:10.012Z,161256.66
2023-09-17T22:03:39.963Z,161255.31
2023-09-17T22:06:09.815Z,161245.94
2023-09-17T22:08:37.461Z,161224.44
2023-09-17T22:11:09.028Z,161219.06
2023-09-17T22:13:36.936Z,161209.66
2023-09-17T22:16:06.213Z,161198.94
2023-09-17T22:18:35.134Z,161194.91
2023-09-17T22:21:13.392Z,161190.91
2023-09-17T22:23:41.504Z,161185.53
2023-09-17T22:26:10.234Z,161166.75
2023-09-17T22:28:38.096Z,161165.41
2023-09-17T22:31:16.525Z,161162.75
2023-09-17T22:33:46.287Z,161162.75
2023-09-17T22:36:14.532Z,161160.03
2023-09-17T22:38:44.799Z,161156.03
2023-09-17T22:41:26.911Z,161153.34
2023-09-17T22:43:59.853Z,161146.69
2023-09-17T22:46:33.081Z,161146.69
2023-09-17T22:49:01.425Z,161139.97
2023-09-17T22:51:31.496Z,161129.22
2023-09-17T22:54:00.808Z,161118.53
2023-09-17T22:56:28.841Z,161113.16
2023-09-17T22:58:56.345Z,161107.78
2023-09-17T23:01:26.412Z,161097.09
2023-09-17T23:03:54.466Z,161078.31
2023-09-17T23:06:23.499Z,161078.31
2023-09-17T23:08:51.617Z,161070.25
2023-09-17T23:11:20.849Z,161063.56
2023-09-17T23:13:48.752Z,161055.53
2023-09-17T23:16:18.346Z,161039.41
2023-09-17T23:18:46.585Z,161034.09
2023-09-17T23:21:16.598Z,161016.63
2023-09-17T23:23:44.654Z,161019.34
2023-09-17T23:26:18.381Z,161020.69
2023-09-17T23:28:47.801Z,161003.22
2023-09-17T23:31:17.561Z,161032.69
2023-09-17T23:33:46.276Z,161038.06
2023-09-17T23:36:13.883Z,161038.06
2023-09-17T23:38:42.122Z,161040.78
2023-09-17T23:41:10.439Z,161032.69
2023-09-17T23:43:38.983Z,161003.22
2023-09-17T23:46:07.681Z,161000.56
2023-09-17T23:48:35.804Z,161005.94
2023-09-17T23:51:04.358Z,161019.34
2023-09-17T23:53:32.122Z,161007.28
2023-09-17T23:56:00.908Z,161003.22
2023-09-17T23:58:28.600Z,160989.81
